Tiempo atmosférico en la estación meteorológica de El Pinar, Depósito, Santa Cruz de Tenerife (948 m.)

Fecha
DESCASC
Temp. máxima en grados centígrados (hora)
DESCASC
Temp. mínima en grados centígrados (hora)
DESCASC
Temp. media en grados centígrados
DESCASC
Racha de viento máxima en m/sg (hora)
DESCASC
Velocidad máxima media en intervalos de 10 minutos(hora)
DESCASC
Precipitaciones diarias en mm
DESCASC
Precipitaciones de 00:00 a 06:00 en mm
DESCASC
Precipitaciones de 06:00 a 12:00 en mm
DESCASC
Precipitaciones de 12:00 a 18:00 en mm
DESCASC
Precipitaciones de 18:00 a 24:00 en mm
DESCASC
22-10-2017 20.1 (14:00) 14.8 (03:50) 17.5 14.17 (10:20) 3.89 (03:30) 0.2 0.2 0 0 0
21-10-2017 19.3 (14:10) 12.2 (04:30) 15.7 11.39 (14:00) 5.28 (14:20) 0.2 0 0.2 0 0
20-10-2017 19.7 (10:40) 14.7 (06:30) 17.2 8.06 (15:50) 3.89 (15:40) 0.4 0 0 0.4 0
19-10-2017 21.6 (15:20) 14.6 (00:00) 18.1 7.5 (01:10) 3.06 (01:20) 0 0 0 0 0
18-10-2017 22.7 (13:30) 14.9 (00:00) 18.8 7.78 (22:10) 3.61 (06:50) 0 0 0 0 0
17-10-2017 24.8 (16:50) 16.9 (00:00) 20.8 6.11 (15:50) 3.33 (12:00) 0 0 0 0 0
16-10-2017 28 (15:00) 19.8 (00:00) 23.9 7.5 (14:00) 3.89 (15:40) 0 0 0 0 0
15-10-2017 28.9 (15:20) 23.1 (00:00) 26 8.89 (18:10) 4.72 (13:30) 0 0 0 0 0
14-10-2017 30.1 (16:50) 22.5 (00:00) 26.3 13.33 (05:40) 4.17 (16:30) 0 0 0 0 0
13-10-2017 31.3 (15:00) 19.3 (00:00) 25.3 6.67 (19:00) 3.61 (12:10) 0 0 0 0 0
12-10-2017 29 (16:10) 16 (00:00) 22.5 6.39 (15:10) 3.06 (15:00) 0 0 0 0 0
11-10-2017 20.8 (18:00) 10.1 (00:00) 15.4 5.28 (17:10) 3.06 (17:10) 0 0 0 0 0
10-10-2017 18.8 (14:20) 11.1 (00:00) 14.9 5 (14:30) 2.78 (14:30) 0 0 0 0 0
09-10-2017 21 (16:20) 13 (00:00) 17 7.78 (16:00) 3.06 (15:40) 0 0 0 0 0
08-10-2017 18.8 (18:00) 12 (00:00) 15.4 6.94 (18:00) 2.78 (16:30) 0 0 0 0 0
07-10-2017 20.3 (13:40) 12.3 (00:00) 16.3 6.94 (12:20) 2.78 (13:10) 0 0 0 0 0
06-10-2017 21 (18:10) 9.8 (00:00) 15.4 5.56 (10:30) 2.78 (14:20) 0 0 0 0 0
05-10-2017 19 (15:50) 10.7 (00:00) 14.8 5.83 (13:50) 3.33 (13:50) 0 0 0 0 0
04-10-2017 22.7 (13:00) 13 (00:00) 17.9 6.11 (13:30) 3.06 (15:00) 0 0 0 0 0
03-10-2017 25.3 (13:50) 13.2 (00:00) 19.2 6.39 (05:00) 3.33 (16:00) 0 0 0 0 0
02-10-2017 23.2 (12:00) 13.1 (00:00) 18.2 9.17 (14:40) 3.89 (18:50) 0 0 0 0 0
01-10-2017 21.9 (17:50) 15 (00:00) 18.4 11.11 (02:10) 4.44 (01:40) 0 0 0 0 0
30-09-2017 22.1 (12:50) 14.7 (00:00) 18.4 10.83 (17:30) 3.89 (17:20) 0 0 0 0 0
29-09-2017 22.5 (11:20) 15.3 (00:00) 18.9 8.89 (19:40) 3.89 (18:40) 0 0 0 0 0
28-09-2017 25.1 (16:10) 15.2 (00:00) 20.2 7.5 (11:10) 3.33 (15:10) 0 0 0 0 0
27-09-2017 24.4 (16:50) 14.5 (00:00) 19.4 6.67 (13:20) 3.33 (13:00) 0 0 0 0 0
26-09-2017 23.1 (14:50) 15 (00:00) 19.1 5.28 (11:00) 3.06 (11:20) 0 0 0 0 0
25-09-2017 23.9 (14:30) 16.4 (00:00) 20.1 9.17 (11:30) 3.89 (11:50) 0 0 0 0 0
24-09-2017 25 (17:00) 14.6 (00:00) 19.8 7.22 (13:20) 3.61 (14:50) 0 0 0 0 0
23-09-2017 25 (12:30) 14.4 (00:00) 19.7 15.28 (01:10) 6.39 (01:20) 0 0 0 0 0

Gráficas

Temp. máximas Temp. mínimas Temp. medias Precipitaciones Rachas de viento máximas Velocidades máximas media en intervalos de 10 minutos

Datos horarios

Fecha y hora oficial Temperatura (ºC) Velocidad del viento (km/h) Dirección del viento Racha (km/h) Dirección de racha Precipitación (mm) Presión (hPa) Tendencia (hPa) Humedad (%)
2017-10-22 23:00:00 15.4 9 Nordeste 25 Norte 0 -- -- 95
2017-10-22 22:00:00 15.4 8 Nordeste 24 Nordeste 0 -- -- 98
2017-10-22 21:00:00 15.6 8 Norte 26 Nordeste 0 -- -- 96
2017-10-22 20:00:00 15.9 8 Nordeste 26 Nordeste 0 -- -- 92
2017-10-22 19:00:00 17 5 Este 20 Este 0 -- -- 87
2017-10-22 18:00:00 18 8 Nordeste 20 Norte 0 -- -- 81
2017-10-22 17:00:00 17.1 5 Nordeste 19 Sudeste 0 -- -- 89
2017-10-22 16:00:00 17.6 5 Sur 24 Sudeste 0 -- -- 87
2017-10-22 15:00:00 18.7 13 Este 25 Sudeste 0 -- -- 78
2017-10-22 14:00:00 20.1 11 Este 31 Sudeste 0 -- -- 67
2017-10-22 13:00:00 17.9 9 Norte 30 Este 0 -- -- 81
2017-10-22 12:00:00 18.6 8 Nordeste 34 Este 0 -- -- 74
2017-10-22 11:00:00 18.3 8 Este 51 Sudeste 0 -- -- 78
2017-10-22 10:00:00 15.8 10 Este 32 Nordeste 0 -- -- 91
2017-10-22 09:00:00 16.2 8 Nordeste 22 Nordeste 0 -- -- 87
2017-10-22 08:00:00 15.1 7 Nordeste 23 Este 0 -- -- 94
2017-10-22 07:00:00 14.9 6 Nordeste 28 Nordeste 0 -- -- 96
2017-10-22 06:00:00 14.9 9 Nordeste 28 Nordeste 0 -- -- 95
2017-10-22 05:00:00 15 10 Nordeste 35 Este 0 -- -- 94
2017-10-22 04:00:00 14.9 12 Nordeste 36 Este 0 -- -- 94
2017-10-22 03:00:00 15.1 14 Nordeste 37 Este 0 -- -- 94
2017-10-22 02:00:00 15.4 12 Nordeste 33 Nordeste 0.2 -- -- 93
2017-10-22 01:00:00 15.5 8 Nordeste 28 Norte 0 -- -- 91
2017-10-22 00:00:00 15.3 6 Nordeste 25 Norte 0 -- -- 87
2017-10-21 23:00:00 15.4 8 Nordeste 24 Nordeste 0 -- -- 86
2017-10-21 22:00:00 15.5 7 Norte 23 Noroeste 0 -- -- 84
2017-10-21 21:00:00 15.5 6 Nordeste 19 Nordeste 0 -- -- 86
2017-10-21 20:00:00 15.7 5 Norte 20 Nordeste 0 -- -- 84
2017-10-21 19:00:00 16.8 5 Este 15 Norte 0 -- -- 83
2017-10-21 18:00:00 16.1 5 Este 19 Sudeste 0 -- -- 89
2017-10-21 17:00:00 15.6 13 Sudeste 31 Sudeste 0 -- -- 88
2017-10-21 16:00:00 16.9 13 Este 30 Sudeste 0 -- -- 87
2017-10-21 15:00:00 18.1 9 Sur 34 Sudeste 0 -- -- 72
2017-10-21 14:00:00 19.1 18 Sudeste 41 Sudeste 0 -- -- 64
2017-10-21 13:00:00 18.2 16 Sudeste 40 Sudeste 0 -- -- 70
2017-10-21 12:00:00 16.1 8 Noroeste 23 Norte 0 -- -- 86
2017-10-21 11:00:00 15.5 6 Nordeste 22 Nordeste 0.2 -- -- 93
2017-10-21 10:00:00 15.8 5 Este 21 Nordeste 0 -- -- 86
2017-10-21 09:00:00 14.8 6 Norte 26 Norte 0 -- -- 82
2017-10-21 08:00:00 14.7 11 Nordeste 28 Nordeste 0 -- -- 86
2017-10-21 07:00:00 14.5 8 Nordeste 22 Este 0 -- -- 90
2017-10-21 06:00:00 13.1 6 Norte 19 Este 0 -- -- 85
2017-10-21 05:00:00 13.1 8 Norte 18 Norte 0 -- -- 82
2017-10-21 04:00:00 13.2 3 Nordeste 23 Este 0 -- -- 76
2017-10-21 03:00:00 13.1 4 Norte 19 Norte 0 -- -- 73
2017-10-21 02:00:00 13.7 6 Norte 22 Norte 0 -- -- 83
2017-10-21 01:00:00 14.3 7 Norte 25 Nordeste 0 -- -- 84
2017-10-21 00:00:00 14.9 5 Nordeste 23 Este 0 -- -- 87
2017-10-20 23:00:00 14.9 7 Nordeste 22 Nordeste 0 -- -- 84
2017-10-20 22:00:00 15.1 8 Norte 27 Nordeste 0 -- -- 76
2017-10-20 21:00:00 15.5 8 Norte 24 Este 0 -- -- 77
2017-10-20 20:00:00 15.5 5 Nordeste 20 Norte 0 -- -- 83
2017-10-20 19:00:00 16.5 9 Norte 23 Norte 0 -- -- 74
2017-10-20 18:00:00 17.4 5 Norte 13 Sur 0 -- -- 74
2017-10-20 17:00:00 18.1 4 Oeste 25 Sudeste 0 -- -- 68
2017-10-20 16:00:00 18.4 14 Este 29 Sudeste 0 -- -- 67
2017-10-20 15:00:00 17.7 9 Nordeste 24 Nordeste 0.4 -- -- 78
2017-10-20 14:00:00 17.6 6 Nordeste 21 Este 0 -- -- 90
2017-10-20 13:00:00 18.2 7 Nordeste 25 Nordeste 0 -- -- 77
2017-10-20 12:00:00 18.5 6 Norte 20 Norte 0 -- -- 76
2017-10-20 11:00:00 18.8 5 Nordeste 17 Noroeste 0 -- -- 72
2017-10-20 10:00:00 18.8 5 Este 18 Este 0 -- -- 73
2017-10-20 09:00:00 16.5 5 Norte 22 Norte 0 -- -- 79
2017-10-20 08:00:00 15.1 8 Norte 19 Noroeste 0 -- -- 86
2017-10-20 07:00:00 14.7 7 Norte 17 Norte 0 -- -- 86
2017-10-20 06:00:00 15 4 Nordeste 15 Nordeste 0 -- -- 85
2017-10-20 05:00:00 15.7 5 Nordeste 19 Este 0 -- -- 84
2017-10-20 04:00:00 15.6 4 Nordeste 18 Nordeste 0 -- -- 84
2017-10-20 03:00:00 15.6 8 Nordeste 20 Nordeste 0 -- -- 90
2017-10-20 02:00:00 15.4 7 Nordeste 26 Nordeste 0 -- -- 89
2017-10-20 01:00:00 15.3 5 Norte 17 Nordeste 0 -- -- 86
2017-10-20 00:00:00 15.2 4 Norte 17 Nordeste 0 -- -- 82
2017-10-19 23:00:00 15.6 7 Nordeste 17 Norte 0 -- -- 84
2017-10-19 22:00:00 15.7 5 Norte 24 Nordeste 0 -- -- 85
2017-10-19 21:00:00 15.7 5 Norte 17 Nordeste 0 -- -- 85
2017-10-19 20:00:00 16.2 5 Norte 21 Noroeste 0 -- -- 82
2017-10-19 19:00:00 17.9 4 Nordeste 18 Sudeste 0 -- -- 74
2017-10-19 18:00:00 19.7 6 Norte 18 Oeste 0 -- -- 68
2017-10-19 17:00:00 20.3 5 Nordeste 17 Nordeste 0 -- -- 66
2017-10-19 16:00:00 21.2 7 Noroeste 23 Norte 0 -- -- 62
2017-10-19 15:00:00 21.4 6 Nordeste 19 Norte 0 -- -- 61
2017-10-19 14:00:00 20.3 8 Norte 24 Este 0 -- -- 63
2017-10-19 13:00:00 18.9 9 Norte 23 Nordeste 0 -- -- 69
2017-10-19 12:00:00 18.7 6 Norte 23 Noroeste 0 -- -- 68
2017-10-19 11:00:00 18.5 6 Norte 18 Norte 0 -- -- 68
2017-10-19 10:00:00 17.1 9 Sudeste 21 Este 0 -- -- 77
2017-10-19 09:00:00 16.2 6 Sudeste 15 Sudeste 0 -- -- 86
2017-10-19 08:00:00 14.8 2 Norte 20 Noroeste 0 -- -- 89
2017-10-19 07:00:00 15.4 7 Norte 24 Noroeste 0 -- -- 88
2017-10-19 06:00:00 15.6 6 Sur 17 Norte 0 -- -- 88
2017-10-19 05:00:00 15.8 4 Este 18 Norte 0 -- -- 88
2017-10-19 04:00:00 15.8 5 Nordeste 23 Noroeste 0 -- -- 83
2017-10-19 03:00:00 15.8 2 Este 18 Norte 0 -- -- 71
2017-10-19 02:00:00 16.3 3 Norte 27 Norte 0 -- -- 65
2017-10-19 01:00:00 17 5 Norte 21 Norte 0 -- -- 59
2017-10-19 00:00:00 16.7 5 Nordeste 14 Norte 0 -- -- 61
2017-10-18 23:00:00 16.9 4 Nordeste 28 Norte 0 -- -- 69
2017-10-18 22:00:00 16.3 8 Norte 24 Norte 0 -- -- 75
2017-10-18 21:00:00 16.5 4 Oeste 17 Noroeste 0 -- -- 77
2017-10-18 20:00:00 17.8 5 Este 12 Este 0 -- -- 65
2017-10-18 19:00:00 19.1 4 Sur 14 Norte 0 -- -- 68
2017-10-18 18:00:00 20.9 7 Este 20 Sur 0 -- -- 53
2017-10-18 17:00:00 21.7 6 Norte 21 Norte 0 -- -- 55
2017-10-18 16:00:00 20.8 9 Norte 24 Norte 0 -- -- 63
2017-10-18 15:00:00 21.5 6 Sudeste 19 Sudeste 0 -- -- 66
2017-10-18 14:00:00 22 10 Sudeste 18 Sudeste 0 -- -- 62
2017-10-18 13:00:00 22.1 8 Sudeste 16 Sudeste 0 -- -- 60
2017-10-18 12:00:00 22 6 Sudeste 16 Sur 0 -- -- 58
2017-10-18 11:00:00 21.5 8 Sudeste 15 Sur 0 -- -- 54
2017-10-18 10:00:00 22.4 7 Norte 25 Norte 0 -- -- 24
2017-10-18 09:00:00 18.5 6 Norte 24 Noroeste 0 -- -- 28
2017-10-18 08:00:00 16.7 9 Norte 27 Noroeste 0 -- -- 28
2017-10-18 07:00:00 16 11 Noroeste 27 Norte 0 -- -- 30
2017-10-18 06:00:00 15.7 5 Norte 24 Noroeste 0 -- -- 50
2017-10-18 05:00:00 14.9 3 Norte 7 Norte 0 -- -- 38
2017-10-18 04:00:00 15 2 Norte 6 Noroeste 0 -- -- 43
2017-10-18 03:00:00 15.2 2 Norte 6 Norte 0 -- -- 40
2017-10-18 02:00:00 15.6 4 Norte 6 Norte 0 -- -- 42
2017-10-18 01:00:00 15.8 5 Norte 8 Norte 0 -- -- 43
2017-10-18 00:00:00 16.9 3 Norte 5 Norte 0 -- -- 39
2017-10-17 23:00:00 18 0 Calma 8 Noroeste 0 -- -- 42
2017-10-17 22:00:00 19.5 4 Noroeste 13 Noroeste 0 -- -- 32
2017-10-17 21:00:00 18.6 3 Noroeste 10 Noroeste 0 -- -- 30
2017-10-17 20:00:00 19 3 Noroeste 6 Noroeste 0 -- -- 43
2017-10-17 19:00:00 21.9 3 Sudeste 9 Sur 0 -- -- 69
2017-10-17 18:00:00 22.4 5 Sudeste 14 Sudeste 0 -- -- 70
2017-10-17 17:00:00 24.2 8 Sudeste 21 Sur 0 -- -- 62
2017-10-17 16:00:00 23.3 8 Sudeste 22 Sur 0 -- -- 66
2017-10-17 15:00:00 22.1 9 Sudeste 19 Sur 0 -- -- 71
2017-10-17 14:00:00 22.1 9 Sudeste 15 Sudeste 0 -- -- 72
2017-10-17 13:00:00 21.4 10 Sudeste 18 Sudeste 0 -- -- 72
2017-10-17 12:00:00 21.2 12 Sudeste 21 Sudeste 0 -- -- 66
2017-10-17 11:00:00 23.8 7 Sudeste 14 Sudeste 0 -- -- 49
2017-10-17 10:00:00 23.8 6 Sudeste 11 Sur 0 -- -- 28
2017-10-17 09:00:00 20.7 6 Noroeste 15 Noroeste 0 -- -- 23
2017-10-17 08:00:00 18.6 5 Noroeste 13 Sudoeste 0 -- -- 26
2017-10-17 07:00:00 18.9 5 Noroeste 9 Oeste 0 -- -- 26
2017-10-17 06:00:00 19.4 5 Noroeste 14 Oeste 0 -- -- 26
2017-10-17 05:00:00 19.8 5 Noroeste 9 Oeste 0 -- -- 30
2017-10-17 04:00:00 19.8 2 Norte 12 Noroeste 0 -- -- 32
2017-10-17 03:00:00 18.7 4 Norte 8 Noroeste 0 -- -- 28
2017-10-17 02:00:00 19.4 4 Noroeste 7 Noroeste 0 -- -- 26
2017-10-17 01:00:00 20 5 Noroeste 9 Noroeste 0 -- -- 25
2017-10-17 00:00:00 20.6 5 Noroeste 10 Noroeste 0 -- -- 24
2017-10-16 23:00:00 20 4 Noroeste 8 Noroeste 0 -- -- 24
2017-10-16 22:00:00 20.3 2 Norte 8 Oeste 0 -- -- 23
2017-10-16 21:00:00 20.6 5 Noroeste 8 Oeste 0 -- -- 22
2017-10-16 20:00:00 22.5 4 Oeste 12 Oeste 0 -- -- 20
2017-10-16 19:00:00 24.2 6 Oeste 15 Oeste 0 -- -- 18
2017-10-16 18:00:00 24.8 5 Oeste 16 Sur 0 -- -- 22
2017-10-16 17:00:00 26 7 Sur 24 Sur 0 -- -- 19
2017-10-16 16:00:00 26.3 11 Sur 26 Sudeste 0 -- -- 27
2017-10-16 15:00:00 28 9 Sur 22 Sur 0 -- -- 25
2017-10-16 14:00:00 27.1 13 Sur 27 Sur 0 -- -- 19
2017-10-16 13:00:00 26.6 9 Sudeste 20 Sur 0 -- -- 20
2017-10-16 12:00:00 25.2 3 Sudeste 11 Sudeste 0 -- -- 24
2017-10-16 11:00:00 24.2 6 Sudeste 11 Sudeste 0 -- -- 23
2017-10-16 10:00:00 24 5 Sur 15 Oeste 0 -- -- 24
2017-10-16 09:00:00 24.1 10 Oeste 25 Oeste 0 -- -- 18
2017-10-16 08:00:00 23.8 11 Oeste 21 Oeste 0 -- -- 18
2017-10-16 07:00:00 23.6 11 Oeste 19 Oeste 0 -- -- 18
2017-10-16 06:00:00 23.9 10 Oeste 20 Oeste 0 -- -- 17
2017-10-16 05:00:00 23.9 13 Oeste 23 Sudoeste 0 -- -- 17
2017-10-16 04:00:00 23.6 10 Oeste 18 Oeste 0 -- -- 17
2017-10-16 03:00:00 22.6 11 Oeste 15 Oeste 0 -- -- 18
2017-10-16 02:00:00 22.6 11 Oeste 19 Oeste 0 -- -- 18
2017-10-16 01:00:00 23.9 10 Oeste 19 Oeste 0 -- -- 17
2017-10-16 00:00:00 23.3 10 Oeste 21 Oeste 0 -- -- 17
2017-10-15 23:00:00 23.4 9 Oeste 22 Oeste 0 -- -- 17
2017-10-15 22:00:00 23.5 10 Noroeste 22 Oeste 0 -- -- 16
2017-10-15 21:00:00 23.3 13 Noroeste 24 Oeste 0 -- -- 17
2017-10-15 20:00:00 23.2 14 Oeste 28 Oeste 0 -- -- 17
2017-10-15 19:00:00 24.6 15 Oeste 32 Sudoeste 0 -- -- 17
2017-10-15 18:00:00 26.3 9 Sudoeste 28 Oeste 0 -- -- 15
2017-10-15 17:00:00 27 12 Sudoeste 28 Oeste 0 -- -- 15
2017-10-15 16:00:00 28.4 10 Sudoeste 26 Sur 0 -- -- 15
2017-10-15 15:00:00 28.5 12 Sudoeste 27 Sur 0 -- -- 18
2017-10-15 14:00:00 27.9 12 Sudoeste 30 Sur 0 -- -- 18
2017-10-15 13:00:00 27.1 10 Sudoeste 27 Sur 0 -- -- 18
2017-10-15 12:00:00 26.7 9 Sudoeste 21 Sur 0 -- -- 18
2017-10-15 11:00:00 27.1 11 Sur 18 Sur 0 -- -- 17
2017-10-15 10:00:00 23.9 2 Sudoeste 9 Oeste 0 -- -- 24
2017-10-15 09:00:00 23.2 2 Este 14 Oeste 0 -- -- 27
2017-10-15 08:00:00 24.4 7 Oeste 13 Oeste 0 -- -- 19
2017-10-15 07:00:00 24.6 7 Oeste 16 Oeste 0 -- -- 18
2017-10-15 06:00:00 24.9 7 Oeste 17 Oeste 0 -- -- 18
2017-10-15 05:00:00 24.9 8 Oeste 15 Oeste 0 -- -- 18
2017-10-15 04:00:00 24.6 9 Oeste 15 Oeste 0 -- -- 19
2017-10-15 03:00:00 24.1 5 Noroeste 13 Oeste 0 -- -- 22
2017-10-15 02:00:00 25.9 8 Oeste 17 Oeste 0 -- -- 18
2017-10-15 01:00:00 26 10 Oeste 19 Oeste 0 -- -- 17
2017-10-15 00:00:00 26.1 12 Oeste 19 Oeste 0 -- -- 17
2017-10-14 23:00:00 26.1 8 Oeste 19 Oeste 0 -- -- 17
2017-10-14 22:00:00 26.1 9 Oeste 22 Oeste 0 -- -- 17
2017-10-14 21:00:00 25.9 11 Oeste 27 Oeste 0 -- -- 17
2017-10-14 20:00:00 26.3 10 Oeste 26 Oeste 0 -- -- 17
2017-10-14 19:00:00 26.5 13 Oeste 26 Oeste 0 -- -- 17
2017-10-14 18:00:00 28.1 8 Oeste 22 Oeste 0 -- -- 16
2017-10-14 17:00:00 29.9 7 Oeste 29 Sur 0 -- -- 15
2017-10-14 16:00:00 28.6 6 Sudoeste 24 Sudeste 0 -- -- 19
2017-10-14 15:00:00 28.4 6 Sur 25 Sur 0 -- -- 18
2017-10-14 14:00:00 27.3 12 Sudeste 26 Este 0 -- -- 19
2017-10-14 13:00:00 27.7 8 Sudeste 23 Este 0 -- -- 17
2017-10-14 12:00:00 27.4 8 Sudeste 20 Sudeste 0 -- -- 19
2017-10-14 11:00:00 26.4 8 Este 17 Sudeste 0 -- -- 22
2017-10-14 10:00:00 25.6 5 Este 19 Este 0 -- -- 24
2017-10-14 09:00:00 23.1 5 Nordeste 14 Noroeste 0 -- -- 30
2017-10-14 08:00:00 22.8 4 Nordeste 15 Sudeste 0 -- -- 25
2017-10-14 07:00:00 23.5 7 Norte 19 Norte 0 -- -- 26
2017-10-14 06:00:00 27.1 9 Sur 48 Oeste 0 -- -- 20
2017-10-14 05:00:00 26.2 8 Oeste 19 Oeste 0 -- -- 19
2017-10-14 04:00:00 25.3 6 Oeste 18 Oeste 0 -- -- 19
2017-10-14 03:00:00 26.1 8 Oeste 19 Noroeste 0 -- -- 18
2017-10-14 02:00:00 24.7 9 Oeste 16 Oeste 0 -- -- 19
2017-10-14 01:00:00 22.9 6 Noroeste 15 Oeste 0 -- -- 22
2017-10-14 00:00:00 23.6 5 Noroeste 13 Oeste 0 -- -- 21
2017-10-13 23:00:00 25.8 8 Oeste 17 Oeste 0 -- -- 18
2017-10-13 22:00:00 26 9 Oeste 19 Oeste 0 -- -- 19
2017-10-13 21:00:00 26.2 8 Oeste 17 Oeste 0 -- -- 19
2017-10-13 20:00:00 26.2 9 Oeste 23 Oeste 0 -- -- 17
2017-10-13 19:00:00 27.4 10 Oeste 24 Oeste 0 -- -- 16
2017-10-13 18:00:00 28.8 7 Sudoeste 19 Sur 0 -- -- 16
2017-10-13 17:00:00 30.6 9 Sur 19 Sur 0 -- -- 15
2017-10-13 16:00:00 30.7 8 Sur 21 Sur 0 -- -- 17
2017-10-13 15:00:00 31.3 9 Sur 22 Sur 0 -- -- 13
2017-10-13 14:00:00 30.6 12 Sur 22 Sur 0 -- -- 16
2017-10-13 13:00:00 30.2 9 Sur 23 Sur 0 -- -- 16
2017-10-13 12:00:00 29.5 10 Sudeste 21 Sudeste 0 -- -- 17
2017-10-13 11:00:00 27.5 6 Sudeste 18 Sudeste 0 -- -- 18
2017-10-13 10:00:00 25.6 8 Este 13 Este 0 -- -- 20
2017-10-13 09:00:00 20 4 Norte 8 Norte 0 -- -- 28
2017-10-13 08:00:00 19.6 4 Norte 8 Norte 0 -- -- 26
2017-10-13 07:00:00 20.5 5 Norte 9 Norte 0 -- -- 25
2017-10-13 06:00:00 21 5 Norte 8 Noroeste 0 -- -- 27
2017-10-13 05:00:00 21.4 6 Norte 8 Norte 0 -- -- 25
2017-10-13 04:00:00 21.2 6 Norte 8 Norte 0 -- -- 25
2017-10-13 03:00:00 21.5 5 Noroeste 8 Noroeste 0 -- -- 25
2017-10-13 02:00:00 21.2 6 Norte 9 Norte 0 -- -- 25
2017-10-13 01:00:00 21.3 6 Norte 8 Norte 0 -- -- 26
2017-10-13 00:00:00 21.7 6 Norte 8 Norte 0 -- -- 26
2017-10-12 23:00:00 21.4 6 Norte 8 Noroeste 0 -- -- 27
2017-10-12 22:00:00 21.8 6 Norte 7 Norte 0 -- -- 27
2017-10-12 21:00:00 22.6 3 Norte 9 Oeste 0 -- -- 26
2017-10-12 20:00:00 24 3 Norte 7 Noroeste 0 -- -- 28
2017-10-12 19:00:00 26.6 0 Calma 8 Sur 0 -- -- 24
2017-10-12 18:00:00 27.4 4 Sur 14 Sur 0 -- -- 23
2017-10-12 17:00:00 28.3 8 Sudeste 18 Sudeste 0 -- -- 21
2017-10-12 16:00:00 28.7 8 Sur 23 Sudeste 0 -- -- 20
2017-10-12 15:00:00 27.7 11 Sudeste 17 Sudeste 0 -- -- 19
2017-10-12 14:00:00 25.7 5 Sudeste 16 Sudeste 0 -- -- 25
2017-10-12 13:00:00 25.3 6 Sudeste 17 Sur 0 -- -- 30
2017-10-12 12:00:00 25.2 10 Sudeste 17 Sudeste 0 -- -- 29
2017-10-12 11:00:00 25.5 5 Sudeste 13 Sudeste 0 -- -- 27
2017-10-12 10:00:00 21.9 0 Calma 4 Sudoeste 0 -- -- 32
2017-10-12 09:00:00 18.4 3 Norte 9 Noroeste 0 -- -- 38
2017-10-12 08:00:00 16.7 6 Norte 8 Norte 0 -- -- 44
2017-10-12 07:00:00 16.2 6 Norte 9 Noroeste 0 -- -- 46
2017-10-12 06:00:00 16.4 5 Noroeste 10 Norte 0 -- -- 44
2017-10-12 05:00:00 16.3 5 Norte 9 Noroeste 0 -- -- 43
2017-10-12 04:00:00 16.3 5 Noroeste 9 Noroeste 0 -- -- 43
2017-10-12 03:00:00 16.8 7 Noroeste 9 Noroeste 0 -- -- 41
2017-10-12 02:00:00 16.6 7 Noroeste 10 Noroeste 0 -- -- 42
2017-10-12 01:00:00 16.5 5 Noroeste 10 Noroeste 0 -- -- 41
2017-10-12 00:00:00 16 5 Noroeste 9 Noroeste 0 -- -- 42
2017-10-11 23:00:00 15.6 5 Noroeste 10 Noroeste 0 -- -- 44
2017-10-11 22:00:00 14.7 4 Norte 6 Noroeste 0 -- -- 46
2017-10-11 21:00:00 14.8 5 Norte 8 Norte 0 -- -- 48
2017-10-11 20:00:00 16.8 5 Norte 6 Norte 0 -- -- 50
2017-10-11 19:00:00 20 2 Sudeste 10 Sur 0 -- -- 53
2017-10-11 18:00:00 20.8 5 Sur 19 Sudeste 0 -- -- 61
2017-10-11 17:00:00 20 7 Sudeste 16 Sudeste 0 -- -- 73
2017-10-11 16:00:00 19.8 8 Sudeste 16 Sudeste 0 -- -- 75
2017-10-11 15:00:00 19.9 8 Sudeste 15 Sudeste 0 -- -- 78
2017-10-11 14:00:00 17.5 4 Este 15 Sudeste 0 -- -- 89
2017-10-11 13:00:00 18 7 Sudeste 13 Sudeste 0 -- -- 87
2017-10-11 12:00:00 17.9 5 Nordeste 13 Este 0 -- -- 80
2017-10-11 11:00:00 18.3 7 Sudeste 15 Sudeste 0 -- -- 77
2017-10-11 10:00:00 17.6 4 Sudeste 10 Sur 0 -- -- 73
2017-10-11 09:00:00 12.1 2 Norte 8 Noroeste 0 -- -- 87
2017-10-11 08:00:00 10.2 6 Norte 8 Norte 0 -- -- 90
2017-10-11 07:00:00 10.1 6 Norte 8 Norte 0 -- -- 89
2017-10-11 06:00:00 10.2 6 Norte 8 Norte 0 -- -- 89
2017-10-11 05:00:00 10.3 6 Norte 8 Norte 0 -- -- 90
2017-10-11 04:00:00 10.5 6 Norte 8 Norte 0 -- -- 90
2017-10-11 03:00:00 10.6 5 Norte 8 Norte 0 -- -- 89
2017-10-11 02:00:00 10.8 6 Norte 10 Norte 0 -- -- 89
2017-10-11 01:00:00 10.9 6 Norte 8 Norte 0 -- -- 88
2017-10-11 00:00:00 11.1 6 Norte 9 Norte 0 -- -- 89
2017-10-10 23:00:00 11.8 5 Norte 8 Norte 0 -- -- 90
2017-10-10 22:00:00 12.3 5 Norte 8 Norte 0 -- -- 88
2017-10-10 21:00:00 14.6 0 Calma 4 Norte 0 -- -- 87
2017-10-10 20:00:00 16.1 0 Calma 6 Sudoeste 0 -- -- 91
2017-10-10 19:00:00 16.3 4 Sur 8 Sur 0 -- -- 90
2017-10-10 18:00:00 16.5 2 Sur 6 Sur 0 -- -- 85
2017-10-10 17:00:00 16.3 0 Calma 12 Sur 0 -- -- 86
2017-10-10 16:00:00 17 5 Sudeste 10 Este 0 -- -- 85
2017-10-10 15:00:00 17.4 5 Este 18 Sudeste 0 -- -- 81
2017-10-10 14:00:00 17.1 5 Sudeste 11 Este 0 -- -- 77
2017-10-10 13:00:00 16.2 3 Sudeste 10 Este 0 -- -- 87
2017-10-10 12:00:00 16.3 5 Sudeste 11 Sudeste 0 -- -- 88
2017-10-10 11:00:00 17.1 6 Este 15 Este 0 -- -- 83
2017-10-10 10:00:00 17.8 6 Sudeste 12 Este 0 -- -- 72
2017-10-10 09:00:00 15.5 0 Calma 11 Nordeste 0 -- -- 80
2017-10-10 08:00:00 14.7 4 Noroeste 14 Oeste 0 -- -- 82
2017-10-10 07:00:00 14.6 2 Norte 5 Noroeste 0 -- -- 78
2017-10-10 06:00:00 15.1 0 Calma 6 Este 0 -- -- 77
2017-10-10 05:00:00 15.6 3 Nordeste 10 Oeste 0 -- -- 79
2017-10-10 04:00:00 15.1 0 Calma 5 Nordeste 0 -- -- 75
2017-10-10 03:00:00 15.2 3 Norte 14 Noroeste 0 -- -- 73
2017-10-10 02:00:00 14 5 Noroeste 14 Noroeste 0 -- -- 74
2017-10-10 01:00:00 13.1 6 Noroeste 12 Noroeste 0 -- -- 81
2017-10-10 00:00:00 13.7 5 Noroeste 15 Norte 0 -- -- 81
2017-10-09 23:00:00 13.8 6 Noroeste 17 Norte 0 -- -- 75
2017-10-09 22:00:00 14.9 2 Nordeste 17 Noroeste 0 -- -- 79
2017-10-09 21:00:00 15.6 5 Norte 22 Norte 0 -- -- 79
2017-10-09 20:00:00 15.8 5 Noroeste 18 Norte 0 -- -- 74
2017-10-09 19:00:00 17.2 4 Noroeste 19 Oeste 0 -- -- 70
2017-10-09 18:00:00 18.9 5 Noroeste 22 Noroeste 0 -- -- 63
2017-10-09 17:00:00 20 7 Norte 22 Norte 0 -- -- 58
2017-10-09 16:00:00 20.7 9 Norte 28 Norte 0 -- -- 49
2017-10-09 15:00:00 19.8 6 Noroeste 23 Noroeste 0 -- -- 57
2017-10-09 14:00:00 18.2 4 Este 15 Nordeste 0 -- -- 79
2017-10-09 13:00:00 19.4 9 Sudeste 22 Norte 0 -- -- 70
2017-10-09 12:00:00 18 7 Norte 21 Noroeste 0 -- -- 60
2017-10-09 11:00:00 18.6 8 Noroeste 20 Norte 0 -- -- 59
2017-10-09 10:00:00 17.7 5 Norte 18 Norte 0 -- -- 60
2017-10-09 09:00:00 15.1 5 Norte 18 Norte 0 -- -- 70
2017-10-09 08:00:00 13.4 8 Norte 22 Noroeste 0 -- -- 84
2017-10-09 07:00:00 13.4 8 Noroeste 21 Noroeste 0 -- -- 85
2017-10-09 06:00:00 13.5 6 Noroeste 20 Noroeste 0 -- -- 80
2017-10-09 05:00:00 13.5 8 Noroeste 20 Norte 0 -- -- 78
2017-10-09 04:00:00 13.5 8 Noroeste 17 Noroeste 0 -- -- 71
2017-10-09 03:00:00 13.6 9 Noroeste 19 Noroeste 0 -- -- 79
2017-10-09 02:00:00 13.5 7 Noroeste 17 Noroeste 0 -- -- 78
2017-10-09 01:00:00 13 6 Noroeste 16 Noroeste 0 -- -- 74
2017-10-09 00:00:00 13.8 6 Noroeste 17 Noroeste 0 -- -- 76
2017-10-08 23:00:00 14.3 8 Noroeste 18 Noroeste 0 -- -- 75
2017-10-08 22:00:00 14.7 8 Noroeste 19 Noroeste 0 -- -- 77
2017-10-08 21:00:00 15.1 9 Noroeste 23 Noroeste 0 -- -- 77
2017-10-08 20:00:00 15.9 9 Noroeste 19 Noroeste 0 -- -- 76
2017-10-08 19:00:00 17.4 6 Noroeste 19 Norte 0 -- -- 69
2017-10-08 18:00:00 18.8 10 Norte 25 Noroeste 0 -- -- 65
2017-10-08 17:00:00 17 6 Este 18 Sudeste 0 -- -- 81
2017-10-08 16:00:00 17.8 8 Este 14 Sudeste 0 -- -- 78
2017-10-08 15:00:00 16.9 5 Sudeste 10 Sudeste 0 -- -- 85
2017-10-08 14:00:00 17.4 4 Este 12 Sudeste 0 -- -- 83
2017-10-08 13:00:00 17.4 3 Sudeste 15 Sudeste 0 -- -- 84
2017-10-08 12:00:00 16.9 6 Sur 16 Sudeste 0 -- -- 82
2017-10-08 11:00:00 17.2 4 Sudoeste 14 Sudeste 0 -- -- 80
2017-10-08 10:00:00 18 5 Oeste 12 Oeste 0 -- -- 62
2017-10-08 09:00:00 13.7 3 Noroeste 9 Norte 0 -- -- 83
2017-10-08 08:00:00 12.6 3 Norte 10 Norte 0 -- -- 83
2017-10-08 07:00:00 14.8 0 Calma 10 Norte 0 -- -- 85
2017-10-08 06:00:00 14.6 4 Norte 10 Norte 0 -- -- 88
2017-10-08 05:00:00 13.7 0 Calma 12 Nordeste 0 -- -- 86
2017-10-08 04:00:00 14.4 3 Este 15 Este 0 -- -- 85
2017-10-08 03:00:00 13.9 5 Nordeste 16 Noroeste 0 -- -- 86
2017-10-08 02:00:00 13.6 5 Nordeste 14 Nordeste 0 -- -- 83
2017-10-08 01:00:00 14.1 6 Norte 16 Norte 0 -- -- 84
2017-10-08 00:00:00 14.6 4 Norte 19 Norte 0 -- -- 84
2017-10-07 23:00:00 15.7 5 Norte 14 Noroeste 0 -- -- 82
2017-10-07 22:00:00 15.8 2 Sudeste 15 Nordeste 0 -- -- 84
2017-10-07 21:00:00 16 2 Norte 18 Este 0 -- -- 81
2017-10-07 20:00:00 16.1 5 Norte 22 Norte 0 -- -- 76
2017-10-07 19:00:00 17.6 4 Noroeste 14 Norte 0 -- -- 73
2017-10-07 18:00:00 18.9 5 Noroeste 20 Noroeste 0 -- -- 65
2017-10-07 17:00:00 18.1 7 Sudeste 15 Sudeste 0 -- -- 73
2017-10-07 16:00:00 19.8 8 Sudeste 21 Oeste 0 -- -- 69
2017-10-07 15:00:00 19.8 6 Norte 19 Nordeste 0 -- -- 60
2017-10-07 14:00:00 20.2 8 Norte 20 Nordeste 0 -- -- 56
2017-10-07 13:00:00 20 7 Sur 25 Noroeste 0 -- -- 60
2017-10-07 12:00:00 19.9 7 Noroeste 23 Oeste 0 -- -- 56
2017-10-07 11:00:00 18.5 4 Sudeste 14 Norte 0 -- -- 64
2017-10-07 10:00:00 15.7 3 Este 10 Este 0 -- -- 77
2017-10-07 09:00:00 14.4 3 Sudeste 8 Sur 0 -- -- 91
2017-10-07 08:00:00 12.4 2 Noroeste 6 Oeste 0 -- -- 91
2017-10-07 07:00:00 14.1 0 Calma 8 Oeste 0 -- -- 88
2017-10-07 06:00:00 14 2 Este 8 Nordeste 0 -- -- 89
2017-10-07 05:00:00 12.9 0 Calma 17 Sur 0 -- -- 92
2017-10-07 04:00:00 13.6 2 Este 12 Sudeste 0 -- -- 91
2017-10-07 03:00:00 13.3 3 Nordeste 10 Este 0 -- -- 88
2017-10-07 02:00:00 13.5 2 Norte 9 Oeste 0 -- -- 84
2017-10-07 01:00:00 14.8 3 Oeste 14 Oeste 0 -- -- 80
2017-10-07 00:00:00 15.4 6 Oeste 15 Oeste 0 -- -- 81
2017-10-06 23:00:00 15.5 5 Oeste 14 Oeste 0 -- -- 77
2017-10-06 22:00:00 15.4 3 Norte 9 Noroeste 0 -- -- 85
2017-10-06 21:00:00 16 4 Este 11 Este 0 -- -- 94
2017-10-06 20:00:00 16.9 4 Este 12 Sudeste 0 -- -- 90
2017-10-06 19:00:00 19.7 3 Sudoeste 17 Oeste 0 -- -- 75
2017-10-06 18:00:00 20.8 6 Sudoeste 20 Sur 0 -- -- 72
2017-10-06 17:00:00 19.1 7 Sudeste 14 Sudeste 0 -- -- 83
2017-10-06 16:00:00 18.9 9 Sudeste 14 Sudeste 0 -- -- 84
2017-10-06 15:00:00 19.1 8 Sudeste 19 Este 0 -- -- 81
2017-10-06 14:00:00 19.8 10 Sudeste 17 Sudeste 0 -- -- 76
2017-10-06 13:00:00 20 8 Sudeste 19 Sudeste 0 -- -- 76
2017-10-06 12:00:00 19.6 9 Sudeste 18 Sudeste 0 -- -- 74
2017-10-06 11:00:00 19.2 7 Sudeste 20 Sudeste 0 -- -- 73
2017-10-06 10:00:00 17.6 4 Sudeste 10 Sur 0 -- -- 76
2017-10-06 09:00:00 13.1 0 Calma 5 Norte 0 -- -- 90
2017-10-06 08:00:00 10.7 3 Nordeste 8 Norte 0 -- -- 90
2017-10-06 07:00:00 9.9 3 Norte 8 Norte 0 -- -- 79
2017-10-06 06:00:00 10.1 4 Norte 8 Norte 0 -- -- 84
2017-10-06 05:00:00 11 3 Norte 7 Norte 0 -- -- 90
2017-10-06 04:00:00 10 4 Norte 8 Norte 0 -- -- 79
2017-10-06 03:00:00 10.2 4 Norte 8 Norte 0 -- -- 77
2017-10-06 02:00:00 10.6 6 Norte 7 Norte 0 -- -- 84
2017-10-06 01:00:00 11.2 5 Noroeste 8 Noroeste 0 -- -- 90
2017-10-06 00:00:00 12.1 4 Norte 6 Noroeste 0 -- -- 90
2017-10-05 23:00:00 12.7 4 Norte 9 Norte 0 -- -- 89
2017-10-05 22:00:00 13.3 4 Norte 6 Norte 0 -- -- 86
2017-10-05 21:00:00 14.4 4 Norte 5 Noroeste 0 -- -- 83
2017-10-05 20:00:00 16.8 2 Este 8 Sudeste 0 -- -- 87
2017-10-05 19:00:00 17.7 3 Sudeste 13 Sudeste 0 -- -- 83
2017-10-05 18:00:00 18.6 6 Sudeste 13 Sudeste 0 -- -- 80
2017-10-05 17:00:00 18.5 4 Este 13 Sudeste 0 -- -- 80
2017-10-05 16:00:00 18.4 5 Este 15 Sudeste 0 -- -- 81
2017-10-05 15:00:00 18 6 Sudeste 15 Sudeste 0 -- -- 83
2017-10-05 14:00:00 18.3 9 Sudeste 21 Sudeste 0 -- -- 82
2017-10-05 13:00:00 18 7 Sur 14 Sur 0 -- -- 83
2017-10-05 12:00:00 17.5 8 Sudeste 15 Sudeste 0 -- -- 85
2017-10-05 11:00:00 16.3 4 Sudeste 10 Sudeste 0 -- -- 90
2017-10-05 10:00:00 16.1 4 Este 13 Oeste 0 -- -- 86
2017-10-05 09:00:00 14.7 5 Oeste 13 Oeste 0 -- -- 85
2017-10-05 08:00:00 13.9 5 Oeste 13 Oeste 0 -- -- 84
2017-10-05 07:00:00 11 3 Noroeste 16 Noroeste 0 -- -- 40
2017-10-05 06:00:00 10.9 4 Noroeste 7 Noroeste 0 -- -- 35
2017-10-05 05:00:00 11.3 4 Norte 6 Norte 0 -- -- 36
2017-10-05 04:00:00 11.7 3 Norte 7 Norte 0 -- -- 36
2017-10-05 03:00:00 12.3 3 Norte 9 Norte 0 -- -- 37
2017-10-05 02:00:00 12.9 4 Norte 8 Norte 0 -- -- 38
2017-10-05 01:00:00 13.3 5 Norte 9 Norte 0 -- -- 35
2017-10-05 00:00:00 13.2 8 Norte 10 Norte 0 -- -- 38
2017-10-04 23:00:00 15.6 2 Norte 8 Norte 0 -- -- 73
2017-10-04 22:00:00 14.7 2 Nordeste 7 Norte 0 -- -- 69
2017-10-04 21:00:00 14.5 0 Calma 5 Norte 0 -- -- 56
2017-10-04 20:00:00 17 2 Noroeste 7 Sur 0 -- -- 73
2017-10-04 19:00:00 19.4 0 Calma 11 Sudeste 0 -- -- 82
2017-10-04 18:00:00 19.3 7 Sudeste 15 Sudeste 0 -- -- 83
2017-10-04 17:00:00 19.9 6 Sur 15 Sudeste 0 -- -- 78
2017-10-04 16:00:00 20.4 7 Sudeste 18 Sudeste 0 -- -- 74
2017-10-04 15:00:00 20.6 11 Sudeste 18 Sudeste 0 -- -- 73
2017-10-04 14:00:00 21.5 9 Sudeste 22 Sudeste 0 -- -- 67
2017-10-04 13:00:00 22.7 6 Sudeste 17 Sudeste 0 -- -- 62
2017-10-04 12:00:00 21.3 7 Sudeste 14 Sudeste 0 -- -- 70
2017-10-04 11:00:00 20.8 8 Sur 14 Sudeste 0 -- -- 67
2017-10-04 10:00:00 20.2 3 Sudeste 8 Sudeste 0 -- -- 67
2017-10-04 09:00:00 15.2 0 Calma 6 Norte 0 -- -- 52
2017-10-04 08:00:00 13.2 4 Norte 9 Norte 0 -- -- 48
2017-10-04 07:00:00 13.4 2 Noroeste 9 Norte 0 -- -- 47
2017-10-04 06:00:00 13.9 7 Norte 10 Noroeste 0 -- -- 45
2017-10-04 05:00:00 14.2 7 Norte 9 Norte 0 -- -- 45
2017-10-04 04:00:00 14.8 5 Norte 8 Norte 0 -- -- 46
2017-10-04 03:00:00 15 6 Norte 9 Norte 0 -- -- 45
2017-10-04 02:00:00 15.7 5 Norte 12 Norte 0 -- -- 44
2017-10-04 01:00:00 16.8 5 Norte 12 Nordeste 0 -- -- 49
2017-10-04 00:00:00 17.5 2 Nordeste 21 Noroeste 0 -- -- 39
2017-10-03 23:00:00 16.6 3 Noroeste 10 Noroeste 0 -- -- 42
2017-10-03 22:00:00 16.8 3 Norte 9 Norte 0 -- -- 41
2017-10-03 21:00:00 18 4 Norte 10 Norte 0 -- -- 39
2017-10-03 20:00:00 20.3 4 Norte 9 Nordeste 0 -- -- 41
2017-10-03 19:00:00 22.7 4 Este 12 Este 0 -- -- 51
2017-10-03 18:00:00 23.4 6 Sudeste 14 Sur 0 -- -- 52
2017-10-03 17:00:00 23.6 4 Sur 20 Sur 0 -- -- 49
2017-10-03 16:00:00 24.4 12 Sudeste 18 Sudeste 0 -- -- 41
2017-10-03 15:00:00 25 9 Este 20 Este 0 -- -- 43
2017-10-03 14:00:00 25.2 8 Este 19 Este 0 -- -- 35
2017-10-03 13:00:00 25 8 Sudeste 15 Sudeste 0 -- -- 33
2017-10-03 12:00:00 23.8 8 Sudeste 15 Sudeste 0 -- -- 51
2017-10-03 11:00:00 23.4 8 Sudeste 19 Sudeste 0 -- -- 45
2017-10-03 10:00:00 23.2 8 Este 17 Este 0 -- -- 30
2017-10-03 09:00:00 17 0 Calma 9 Norte 0 -- -- 45
2017-10-03 08:00:00 15 4 Norte 13 Norte 0 -- -- 52
2017-10-03 07:00:00 14.2 5 Norte 12 Noroeste 0 -- -- 52
2017-10-03 06:00:00 15.1 6 Norte 17 Noroeste 0 -- -- 62
2017-10-03 05:00:00 15.9 10 Norte 23 Norte 0 -- -- 66
2017-10-03 04:00:00 13.8 5 Norte 10 Norte 0 -- -- 51
2017-10-03 03:00:00 13.9 3 Noroeste 12 Noroeste 0 -- -- 51
2017-10-03 02:00:00 13.6 5 Norte 8 Norte 0 -- -- 53
2017-10-03 01:00:00 13.3 4 Norte 8 Noroeste 0 -- -- 58
2017-10-03 00:00:00 14.7 3 Norte 14 Norte 0 -- -- 70
2017-10-02 23:00:00 15.3 6 Norte 15 Norte 0 -- -- 68
2017-10-02 22:00:00 15.1 6 Noroeste 15 Noroeste 0 -- -- 67
2017-10-02 21:00:00 14.9 4 Noroeste 9 Norte 0 -- -- 68
2017-10-02 20:00:00 17.1 5 Norte 26 Noroeste 0 -- -- 66
2017-10-02 19:00:00 19.2 12 Noroeste 31 Noroeste 0 -- -- 66
2017-10-02 18:00:00 19.7 7 Este 18 Sudeste 0 -- -- 70
2017-10-02 17:00:00 22.4 10 Sur 20 Nordeste 0 -- -- 62
2017-10-02 16:00:00 22.7 10 Sur 21 Sur 0 -- -- 62
2017-10-02 15:00:00 22.3 9 Noroeste 33 Noroeste 0 -- -- 54
2017-10-02 14:00:00 21.4 5 Sur 21 Este 0 -- -- 62
2017-10-02 13:00:00 21.6 8 Este 18 Sur 0 -- -- 65
2017-10-02 12:00:00 23.2 9 Sur 26 Noroeste 0 -- -- 56
2017-10-02 11:00:00 21.3 7 Noroeste 25 Norte 0 -- -- 56
2017-10-02 10:00:00 21 7 Este 19 Nordeste 0 -- -- 53
2017-10-02 09:00:00 17.2 6 Norte 14 Noroeste 0 -- -- 65
2017-10-02 08:00:00 15.1 9 Norte 24 Norte 0 -- -- 78
2017-10-02 07:00:00 15.4 7 Norte 24 Norte 0 -- -- 72
2017-10-02 06:00:00 15.5 8 Norte 19 Norte 0 -- -- 66
2017-10-02 05:00:00 14 6 Norte 17 Norte 0 -- -- 73
2017-10-02 04:00:00 13.1 5 Noroeste 8 Norte 0 -- -- 65
2017-10-02 03:00:00 13.9 4 Norte 7 Norte 0 -- -- 61
2017-10-02 02:00:00 15 5 Norte 14 Noroeste 0 -- -- 62
2017-10-02 01:00:00 15.2 6 Norte 13 Norte 0 -- -- 63
2017-10-02 00:00:00 16.1 3 Norte 22 Este 0 -- -- 58
2017-10-01 23:00:00 16.1 8 Norte 31 Norte 0 -- -- 65
2017-10-01 22:00:00 16.1 14 Norte 37 Noroeste 0 -- -- 79
2017-10-01 21:00:00 16.4 14 Norte 33 Norte 0 -- -- 80
2017-10-01 20:00:00 17.4 7 Norte 25 Norte 0 -- -- 73
2017-10-01 19:00:00 19.8 9 Norte 31 Noroeste 0 -- -- 62
2017-10-01 18:00:00 21.7 6 Sur 24 Norte 0 -- -- 60
2017-10-01 17:00:00 20.7 8 Sudeste 20 Este 0 -- -- 71
2017-10-01 16:00:00 20.5 11 Este 23 Sudeste 0 -- -- 71
2017-10-01 15:00:00 21.7 8 Este 30 Norte 0 -- -- 66
2017-10-01 14:00:00 20.4 11 Nordeste 30 Este 0 -- -- 70
2017-10-01 13:00:00 19.8 13 Nordeste 38 Nordeste 0 -- -- 73
2017-10-01 12:00:00 17.9 9 Nordeste 30 Norte 0 -- -- 82
2017-10-01 11:00:00 17.9 12 Nordeste 32 Noroeste 0 -- -- 78
2017-10-01 10:00:00 17.3 9 Nordeste 37 Norte 0 -- -- 79
2017-10-01 09:00:00 16.6 15 Norte 35 Norte 0 -- -- 83
2017-10-01 08:00:00 15.4 13 Norte 32 Noroeste 0 -- -- 90
2017-10-01 07:00:00 15.3 11 Norte 30 Norte 0 -- -- 89
2017-10-01 06:00:00 15.1 12 Norte 31 Norte 0 -- -- 88
2017-10-01 05:00:00 15.1 11 Norte 29 Norte 0 -- -- 86
2017-10-01 04:00:00 15.2 12 Norte 28 Nordeste 0 -- -- 86
2017-10-01 03:00:00 15.2 11 Norte 40 Noroeste 0 -- -- 87
2017-10-01 02:00:00 15.3 14 Norte 37 Norte 0 -- -- 83
2017-10-01 01:00:00 15.6 8 Nordeste 29 Norte 0 -- -- 81
2017-10-01 00:00:00 16.1 10 Norte 35 Noroeste 0 -- -- 81
2017-09-30 23:00:00 15.9 9 Norte 29 Norte 0 -- -- 80
2017-09-30 22:00:00 15.9 10 Nordeste 32 Noroeste 0 -- -- 83
2017-09-30 21:00:00 15.7 10 Norte 27 Noroeste 0 -- -- 79
2017-09-30 20:00:00 16.5 7 Nordeste 27 Noroeste 0 -- -- 77
2017-09-30 19:00:00 18.4 9 Este 23 Este 0 -- -- 63
2017-09-30 18:00:00 19.8 9 Nordeste 39 Norte 0 -- -- 61
2017-09-30 17:00:00 20.5 13 Norte 37 Norte 0 -- -- 63
2017-09-30 16:00:00 21.5 7 Norte 33 Sudeste 0 -- -- 52
2017-09-30 15:00:00 20.6 10 Sudeste 31 Sudeste 0 -- -- 64
2017-09-30 14:00:00 21.6 8 Este 26 Este 0 -- -- 55
2017-09-30 13:00:00 21.6 8 Este 24 Sudeste 0 -- -- 50
2017-09-30 12:00:00 21.3 10 Este 28 Nordeste 0 -- -- 49
2017-09-30 11:00:00 19.7 12 Este 33 Este 0 -- -- 54
2017-09-30 10:00:00 18.9 9 Este 24 Este 0 -- -- 54
2017-09-30 09:00:00 17.7 8 Norte 31 Este 0 -- -- 46
2017-09-30 08:00:00 14.9 10 Norte 24 Norte 0 -- -- 53
2017-09-30 07:00:00 15.2 9 Norte 32 Norte 0 -- -- 86
2017-09-30 06:00:00 15.5 14 Norte 33 Norte 0 -- -- 83
2017-09-30 05:00:00 16.3 7 Norte 23 Nordeste 0 -- -- 72
2017-09-30 04:00:00 16.6 5 Nordeste 16 Este 0 -- -- 65
2017-09-30 03:00:00 15.9 5 Nordeste 15 Nordeste 0 -- -- 65
2017-09-30 02:00:00 15.5 7 Norte 19 Sudeste 0 -- -- 71
2017-09-30 01:00:00 15.9 6 Este 21 Este 0 -- -- 82
2017-09-30 00:00:00 16.9 6 Este 17 Este 0 -- -- 61
2017-09-29 23:00:00 16.7 4 Este 20 Norte 0 -- -- 58
2017-09-29 22:00:00 17.1 5 Este 21 Este 0 -- -- 60
2017-09-29 21:00:00 16.8 8 Nordeste 27 Este 0 -- -- 75
2017-09-29 20:00:00 16.9 9 Nordeste 32 Norte 0 -- -- 83
2017-09-29 19:00:00 18.4 12 Norte 31 Nordeste 0 -- -- 78
2017-09-29 18:00:00 20.9 8 Nordeste 24 Sudeste 0 -- -- 65
2017-09-29 17:00:00 20.5 9 Nordeste 27 Nordeste 0 -- -- 66
2017-09-29 16:00:00 18.4 7 Este 23 Este 0 -- -- 84
2017-09-29 15:00:00 19.4 6 Sudeste 22 Sudeste 0 -- -- 79
2017-09-29 14:00:00 20.2 12 Sudeste 19 Sudeste 0 -- -- 74
2017-09-29 13:00:00 20.2 9 Sudeste 21 Sudeste 0 -- -- 76
2017-09-29 12:00:00 22 9 Sudeste 18 Sur 0 -- -- 66
2017-09-29 11:00:00 22 6 Sur 13 Sudeste 0 -- -- 61
2017-09-29 10:00:00 22 6 Sudeste 12 Este 0 -- -- 51
2017-09-29 09:00:00 18.7 4 Norte 14 Noroeste 0 -- -- 43
2017-09-29 08:00:00 15.8 7 Noroeste 14 Noroeste 0 -- -- 60
2017-09-29 07:00:00 15.5 6 Norte 10 Norte 0 -- -- 59
2017-09-29 06:00:00 16 3 Noroeste 13 Noroeste 0 -- -- 59
2017-09-29 05:00:00 17 6 Noroeste 15 Noroeste 0 -- -- 55
2017-09-29 04:00:00 17.2 3 Oeste 12 Noroeste 0 -- -- 53
2017-09-29 03:00:00 16.9 2 Norte 13 Noroeste 0 -- -- 54
2017-09-29 02:00:00 17.8 6 Noroeste 14 Norte 0 -- -- 52
2017-09-29 01:00:00 18.4 7 Noroeste 14 Noroeste 0 -- -- 51
2017-09-29 00:00:00 19 3 Noroeste 17 Noroeste 0 -- -- 51
2017-09-28 23:00:00 19.6 6 Noroeste 20 Norte 0 -- -- 51
2017-09-28 22:00:00 19.9 9 Noroeste 20 Noroeste 0 -- -- 54
2017-09-28 21:00:00 20.3 6 Norte 16 Norte 0 -- -- 56
2017-09-28 20:00:00 22.3 5 Norte 15 Norte 0 -- -- 50
2017-09-28 19:00:00 24.4 5 Nordeste 15 Nordeste 0 -- -- 42
2017-09-28 18:00:00 24.9 6 Nordeste 16 Este 0 -- -- 43
2017-09-28 17:00:00 23.1 7 Sudeste 17 Este 0 -- -- 67
2017-09-28 16:00:00 24.9 10 Este 19 Este 0 -- -- 47
2017-09-28 15:00:00 23.8 8 Este 19 Sudeste 0 -- -- 58
2017-09-28 14:00:00 23.9 10 Sudeste 21 Este 0 -- -- 58
2017-09-28 13:00:00 24.9 10 Este 20 Este 0 -- -- 51
2017-09-28 12:00:00 24.5 8 Este 27 Este 0 -- -- 51
2017-09-28 11:00:00 24.6 9 Este 21 Este 0 -- -- 48
2017-09-28 10:00:00 23.6 8 Norte 22 Norte 0 -- -- 45
2017-09-28 09:00:00 20 3 Nordeste 10 Este 0 -- -- 54
2017-09-28 08:00:00 17.3 4 Este 13 Este 0 -- -- 61
2017-09-28 07:00:00 16.3 4 Norte 13 Norte 0 -- -- 65
2017-09-28 06:00:00 16 2 Norte 10 Nordeste 0 -- -- 64
2017-09-28 05:00:00 16.2 4 Norte 13 Norte 0 -- -- 62
2017-09-28 04:00:00 15.8 4 Norte 10 Nordeste 0 -- -- 62
2017-09-28 03:00:00 16.3 2 Nordeste 13 Norte 0 -- -- 61
2017-09-28 02:00:00 15.3 5 Norte 15 Norte 0 -- -- 69
2017-09-28 01:00:00 15.4 4 Norte 9 Norte 0 -- -- 75
2017-09-28 00:00:00 15.9 4 Norte 17 Norte 0 -- -- 74
2017-09-27 23:00:00 16.2 4 Nordeste 12 Nordeste 0 -- -- 72
2017-09-27 22:00:00 17.8 3 Nordeste 11 Nordeste 0 -- -- 64
2017-09-27 21:00:00 19.2 4 Norte 12 Nordeste 0 -- -- 58
2017-09-27 20:00:00 20.9 3 Este 21 Este 0 -- -- 53
2017-09-27 19:00:00 22.8 6 Nordeste 19 Sudeste 0 -- -- 47
2017-09-27 18:00:00 24.2 6 Este 19 Nordeste 0 -- -- 44
2017-09-27 17:00:00 24.3 8 Este 20 Este 0 -- -- 55
2017-09-27 16:00:00 23.9 8 Sudeste 18 Sudeste 0 -- -- 51
2017-09-27 15:00:00 22.9 8 Sudeste 17 Este 0 -- -- 54
2017-09-27 14:00:00 21.1 10 Este 24 Sudeste -- -- -- 69
2017-09-27 13:00:00 22.5 12 Sudeste 20 Sudeste 0 -- -- 68
2017-09-27 12:00:00 23 10 Este 19 Este 0 -- -- 63
2017-09-27 11:00:00 22.2 9 Este 21 Sudeste 0 -- -- 69
2017-09-27 10:00:00 21.8 8 Este 18 Este 0 -- -- 59
2017-09-27 09:00:00 17.1 3 Nordeste 9 Sudeste 0 -- -- 77
2017-09-27 08:00:00 14.9 3 Norte 12 Noroeste 0 -- -- 82
2017-09-27 07:00:00 15.1 3 Norte 14 Norte 0 -- -- 84
2017-09-27 06:00:00 14.6 3 Norte 9 Norte 0 -- -- 85
2017-09-27 05:00:00 15 5 Norte 11 Norte 0 -- -- 84
2017-09-27 04:00:00 15 4 Norte 10 Norte 0 -- -- 83
2017-09-27 03:00:00 15.2 4 Norte 9 Norte 0 -- -- 83
2017-09-27 02:00:00 15.4 5 Norte 9 Norte 0 -- -- 84
2017-09-27 01:00:00 15.4 4 Norte 8 Norte 0 -- -- 85
2017-09-27 00:00:00 15.1 4 Norte 8 Norte 0 -- -- 85
2017-09-26 23:00:00 15.9 4 Norte 6 Norte 0 -- -- 83
2017-09-26 22:00:00 16.8 4 Norte 7 Norte 0 -- -- 85
2017-09-26 21:00:00 17.7 3 Noroeste 4 Norte 0 -- -- 85
2017-09-26 20:00:00 19.1 0 Calma 10 Sudeste 0 -- -- 86
2017-09-26 19:00:00 20.3 5 Sur 15 Sudoeste 0 -- -- 82
2017-09-26 18:00:00 21 6 Sur 15 Sudeste 0 -- -- 80
2017-09-26 17:00:00 21.4 6 Sudeste 15 Sudeste 0 -- -- 67
2017-09-26 16:00:00 21.7 7 Sudeste 15 Sudeste 0 -- -- 66
2017-09-26 15:00:00 22.7 9 Sudeste 16 Sudeste 0 -- -- 64
2017-09-26 14:00:00 21.6 7 Este 19 Sudeste 0 -- -- 74
2017-09-26 13:00:00 22.1 10 Sudeste 19 Sudeste 0 -- -- 70
2017-09-26 12:00:00 19.7 6 Este 19 Este 0 -- -- 84
2017-09-26 11:00:00 20.8 11 Sudeste 19 Sudeste 0 -- -- 79
2017-09-26 10:00:00 20.7 5 Este 13 Sudeste 0 -- -- 71
2017-09-26 09:00:00 17.4 4 Este 8 Este 0 -- -- 84
2017-09-26 08:00:00 15.1 4 Norte 7 Norte 0 -- -- 85
2017-09-26 07:00:00 15.4 6 Norte 7 Norte 0 -- -- 84
2017-09-26 06:00:00 15.7 4 Norte 8 Norte 0 -- -- 84
2017-09-26 05:00:00 15.9 5 Norte 8 Norte 0 -- -- 84
2017-09-26 04:00:00 15.8 5 Norte 9 Noroeste 0 -- -- 86
2017-09-26 03:00:00 15.7 4 Norte 6 Norte 0 -- -- 85
2017-09-26 02:00:00 16.3 3 Noroeste 6 Norte 0 -- -- 86
2017-09-26 01:00:00 16.8 2 Noroeste 9 Noroeste 0 -- -- 84
2017-09-26 00:00:00 16.5 5 Noroeste 9 Noroeste 0 -- -- 86
2017-09-25 23:00:00 16.6 4 Norte 5 Norte 0 -- -- 82
2017-09-25 22:00:00 17.3 3 Norte 7 Noroeste 0 -- -- 80
2017-09-25 21:00:00 18 4 Noroeste 13 Oeste 0 -- -- 79
2017-09-25 20:00:00 19.3 9 Oeste 17 Oeste 0 -- -- 79
2017-09-25 19:00:00 21.6 6 Sudoeste 16 Sur 0 -- -- 70
2017-09-25 18:00:00 20.3 6 Sur 17 Sudeste 0 -- -- 77
2017-09-25 17:00:00 20 10 Sudeste 25 Sudeste 0 -- -- 79
2017-09-25 16:00:00 22.9 11 Sudeste 23 Sudeste 0 -- -- 64
2017-09-25 15:00:00 22.9 10 Este 21 Este 0 -- -- 63
2017-09-25 14:00:00 22.4 12 Este 22 Este 0 -- -- 62
2017-09-25 13:00:00 21.8 14 Este 26 Este 0 -- -- 64
2017-09-25 12:00:00 21.7 13 Este 33 Sudeste 0 -- -- 63
2017-09-25 11:00:00 21.2 12 Este 29 Este 0 -- -- 67
2017-09-25 10:00:00 21.2 8 Este 19 Este 0 -- -- 69
2017-09-25 09:00:00 19.4 4 Este 10 Este 0 -- -- 72
2017-09-25 08:00:00 16.9 2 Norte 6 Norte 0 -- -- 81
2017-09-25 07:00:00 17.7 0 Calma 10 Norte 0 -- -- 79
2017-09-25 06:00:00 18.9 5 Sudeste 17 Este 0 -- -- 77
2017-09-25 05:00:00 18.1 4 Norte 17 Sudeste 0 -- -- 85
2017-09-25 04:00:00 18.3 3 Nordeste 18 Sudeste 0 -- -- 79
2017-09-25 03:00:00 20.3 13 Este 33 Este 0 -- -- 66
2017-09-25 02:00:00 21.4 2 Nordeste 18 Sudeste 0 -- -- 53
2017-09-25 01:00:00 20.5 4 Nordeste 11 Este 0 -- -- 60
2017-09-25 00:00:00 21 4 Nordeste 15 Este 0 -- -- 62
2017-09-24 23:00:00 22 4 Nordeste 18 Este 0 -- -- 59
2017-09-24 22:00:00 22.5 4 Nordeste 17 Este 0 -- -- 55
2017-09-24 21:00:00 22.5 5 Norte 16 Norte 0 -- -- 52
2017-09-24 20:00:00 22.8 7 Nordeste 19 Sudeste 0 -- -- 45
2017-09-24 19:00:00 24.5 5 Nordeste 17 Sudeste 0 -- -- 40
2017-09-24 18:00:00 24.8 6 Este 19 Este 0 -- -- 39
2017-09-24 17:00:00 25 7 Este 22 Sudeste 0 -- -- 37
2017-09-24 16:00:00 24.5 9 Este 20 Sudeste 0 -- -- 40
2017-09-24 15:00:00 23.4 11 Este 25 Este 0 -- -- 44
2017-09-24 14:00:00 21.1 10 Este 26 Este 0 -- -- 60
2017-09-24 13:00:00 20.6 9 Sudeste 22 Este 0 -- -- 57
2017-09-24 12:00:00 21.1 10 Sudeste 25 Sudeste 0 -- -- 60
2017-09-24 11:00:00 16.6 7 Este 20 Este 0 -- -- 91
2017-09-24 10:00:00 17.3 5 Este 21 Este 0 -- -- 87
2017-09-24 09:00:00 15.5 6 Nordeste 17 Noroeste 0 -- -- 84
2017-09-24 08:00:00 14.8 4 Norte 13 Sudeste 0 -- -- 74
2017-09-24 07:00:00 15.7 5 Norte 17 Nordeste 0 -- -- 74
2017-09-24 06:00:00 15.4 5 Nordeste 18 Norte 0 -- -- 84
2017-09-24 05:00:00 15.2 4 Nordeste 17 Este 0 -- -- 93
2017-09-24 04:00:00 14.7 3 Este 13 Nordeste 0 -- -- 91
2017-09-24 03:00:00 15.2 3 Este 9 Norte 0 -- -- 83
2017-09-24 02:00:00 16.3 3 Nordeste 21 Noroeste 0 -- -- 76
2017-09-24 01:00:00 14.7 3 Norte 10 Este 0 -- -- 86
2017-09-24 00:00:00 15.7 4 Nordeste 10 Norte 0 -- -- 79
2017-09-23 23:00:00 15.4 0 Calma 9 Sudeste 0 -- -- 93
2017-09-23 22:00:00 15.8 8 Este 26 Nordeste 0 -- -- 93
2017-09-23 21:00:00 16.5 6 Nordeste 20 Norte 0 -- -- 85
2017-09-23 20:00:00 16.7 10 Este 18 Este 0 -- -- 83
2017-09-23 19:00:00 19.5 4 Sur 31 Norte 0 -- -- 70
2017-09-23 18:00:00 20.2 9 Norte 38 Norte 0 -- -- 66
2017-09-23 17:00:00 20.4 5 Sudeste 17 Sudeste 0 -- -- 66
2017-09-23 16:00:00 22.8 5 Sur 15 Sudeste 0 -- -- 54
2017-09-23 15:00:00 23.3 8 Sudeste 19 Sur 0 -- -- 54
2017-09-23 14:00:00 23.6 8 Sudeste 22 Norte 0 -- -- 43
2017-09-23 13:00:00 23.2 6 Sur 23 Noroeste 0 -- -- 49
2017-09-23 12:00:00 23.4 9 Nordeste 26 Norte 0 -- -- 46
2017-09-23 11:00:00 22.8 9 Norte 24 Norte 0 -- -- 49
2017-09-23 10:00:00 19.9 9 Norte 31 Norte 0 -- -- 56
2017-09-23 09:00:00 15.4 14 Norte 38 Noroeste 0 -- -- 78
2017-09-23 08:00:00 14.6 16 Norte 39 Nordeste 0 -- -- 90
2017-09-23 07:00:00 14.5 13 Norte 32 Noroeste 0 -- -- 88
2017-09-23 06:00:00 14.4 13 Norte 42 Norte 0 -- -- 85
2017-09-23 05:00:00 14.4 17 Norte 47 Norte 0 -- -- 85
2017-09-23 04:00:00 14.6 14 Norte 45 Norte 0 -- -- 85
2017-09-23 03:00:00 14.7 16 Norte 41 Norte 0 -- -- 84
2017-09-23 02:00:00 15 19 Norte 55 Norte 0 -- -- 86
2017-09-23 01:00:00 15.2 19 Norte 50 Norte 0 -- -- 82
2017-09-23 00:00:00 15.4 21 Norte 52 Noroeste 0 -- -- 85